Time;durP1;ratioP1;P1;durP2;ratioP2;P2;SDS_P1;SDS_P2;PMS_P1;PMS_P2;Temp;Humidity;BMP_temperature;BMP_pressure;BME280_temperature;BME280_humidity;BME280_pressure;Samples;Min_cycle;Max_cycle;Signal;HPM_P1;HPM_P2
2022/12/04 00:01:18;;;;;;;51.95;26.38;;;;;;;2.80;70.55;101520.59;3614789;39;20381;-64
2022/12/04 00:03:44;;;;;;;53.00;25.58;;;;;;;2.76;70.41;101524.22;3612307;39;21245;-64
2022/12/04 00:06:18;;;;;;;52.78;27.27;;;;;;;2.76;70.02;101517.13;3615709;39;20061;-64
2022/12/04 00:08:45;;;;;;;;;;;;;;;2.76;70.80;101516.25;3602960;39;20123;-63
2022/12/04 00:11:15;;;;;;;50.70;25.08;;;;;;;2.75;70.43;101520.66;3614703;39;19937;-64
2022/12/04 00:13:42;;;;;;;58.95;27.23;;;;;;;2.77;71.06;101512.69;3612449;39;20571;-64
2022/12/04 00:16:12;;;;;;;56.38;27.38;;;;;;;2.81;70.27;101518.81;3613646;39;20095;-64
2022/12/04 00:18:38;;;;;;;52.53;26.92;;;;;;;2.78;70.11;101510.00;3616206;39;20059;-63
2022/12/04 00:21:08;;;;;;;52.72;25.27;;;;;;;2.80;70.37;101512.63;3614516;39;20425;-64
2022/12/04 00:23:36;;;;;;;52.58;27.45;;;;;;;2.77;70.39;101507.38;3605268;39;20119;-64
2022/12/04 00:26:06;;;;;;;55.10;27.15;;;;;;;2.79;70.32;101508.19;3615832;39;20207;-64
2022/12/04 00:28:34;;;;;;;54.63;27.88;;;;;;;2.78;70.34;101506.47;3617733;39;20111;-63
2022/12/04 00:31:04;;;;;;;52.08;25.50;;;;;;;2.80;71.10;101509.97;3615436;39;20047;-63
2022/12/04 00:33:30;;;;;;;54.70;26.27;;;;;;;2.82;70.73;101508.16;3609628;39;20058;-63
2022/12/04 00:36:01;;;;;;;50.15;25.27;;;;;;;1.97;70.83;101365.56;3614913;39;20073;-63
2022/12/04 00:38:27;;;;;;;53.30;25.98;;;;;;;2.83;70.13;101517.00;3616038;39;20294;-63
2022/12/04 00:40:53;;;;;;;48.03;24.83;;;;;;;2.83;70.73;101514.34;3610222;39;20115;-63
2022/12/04 00:43:20;;;;;;;56.33;27.73;;;;;;;2.77;69.94;101504.72;3615727;39;20059;-63
2022/12/04 00:45:45;;;;;;;54.95;27.42;;;;;;;2.79;70.46;101501.16;3614377;39;20586;-63
2022/12/04 00:48:11;;;;;;;52.40;25.77;;;;;;;2.80;70.57;101502.00;3620930;39;20054;-63
2022/12/04 00:50:37;;;;;;;51.42;27.02;;;;;;;2.83;69.96;101501.09;3614959;39;20047;-63
2022/12/04 00:53:03;;;;;;;49.75;26.70;;;;;;;2.81;70.92;101508.19;3616443;39;20066;-63
2022/12/04 00:55:29;;;;;;;53.17;27.20;;;;;;;2.79;70.47;101498.50;3614213;39;20062;-63
2022/12/04 00:57:55;;;;;;;52.03;27.05;;;;;;;2.79;70.15;101501.16;3614305;39;20381;-63
2022/12/04 01:00:20;;;;;;;51.25;25.92;;;;;;;2.81;69.87;101502.88;3611982;39;20429;-63
2022/12/04 01:02:46;;;;;;;50.28;26.10;;;;;;;2.81;70.95;101503.75;3613249;39;20050;-64
2022/12/04 01:05:12;;;;;;;54.35;26.48;;;;;;;2.81;70.59;101503.75;3615052;39;20055;-63
2022/12/04 01:07:37;;;;;;;54.75;26.60;;;;;;;2.80;70.16;101512.63;3615622;39;20115;-65
2022/12/04 01:10:06;;;;;;;52.30;26.00;;;;;;;2.78;70.66;101517.09;3614628;39;20050;-64
2022/12/04 01:12:32;;;;;;;50.17;25.95;;;;;;;2.79;70.33;101510.84;3616566;39;20058;-65
2022/12/04 01:14:59;;;;;;;47.00;25.80;;;;;;;2.78;71.06;101519.75;3615814;39;20063;-64
2022/12/04 01:17:24;;;;;;;51.60;26.67;;;;;;;2.79;69.83;101513.50;3614141;39;20361;-64
2022/12/04 01:19:50;;;;;;;51.30;26.75;;;;;;;2.80;70.96;101520.59;3615204;39;20051;-65
2022/12/04 01:22:16;;;;;;;55.88;27.02;;;;;;;2.82;70.54;101520.56;3614331;39;20082;-64
2022/12/04 01:24:41;;;;;;;54.67;27.70;;;;;;;2.64;70.48;101490.81;3614166;39;20062;-64
2022/12/04 01:27:07;;;;;;;51.88;27.38;;;;;;;2.70;70.04;101496.00;3613424;39;20077;-64
2022/12/04 01:29:33;;;;;;;48.90;25.17;;;;;;;2.80;70.67;101520.59;3614923;39;20059;-64
2022/12/04 01:31:59;;;;;;;52.28;26.27;;;;;;;2.80;70.91;101517.94;3613474;39;20051;-65
2022/12/04 01:34:24;;;;;;;52.38;26.55;;;;;;;2.82;70.73;101521.41;3615926;39;20050;-64
2022/12/04 01:36:50;;;;;;;52.53;26.80;;;;;;;2.83;70.78;101517.00;3616198;39;20278;-64
2022/12/04 01:39:17;;;;;;;51.08;26.50;;;;;;;2.83;71.03;101519.66;3615253;39;20062;-64
2022/12/04 01:41:42;;;;;;;54.63;28.05;;;;;;;2.79;70.66;101513.50;3611799;39;21313;-65
2022/12/04 01:44:16;;;;;;;50.65;25.92;;;;;;;2.83;70.37;101512.56;3616042;39;20144;-64
2022/12/04 01:46:50;;;;;;;50.60;27.45;;;;;;;2.85;70.52;101513.41;3615988;39;20062;-64
2022/12/04 01:49:41;;;;;;;57.88;28.33;;;;;;;2.83;70.60;101507.25;3603804;39;20050;-65
2022/12/04 01:52:19;;;;;;;47.65;25.55;;;;;;;2.84;70.80;101511.66;3612115;39;20054;-64
2022/12/04 01:54:54;;;;;;;48.78;25.77;;;;;;;2.66;70.54;101473.06;3611505;39;20316;-64
2022/12/04 01:57:25;;;;;;;53.65;26.45;;;;;;;2.77;70.18;101486.13;3614121;39;20519;-64
2022/12/04 01:59:59;;;;;;;51.63;26.30;;;;;;;2.08;70.41;101373.31;3611911;39;20063;-64
2022/12/04 02:02:38;;;;;;;49.67;25.20;;;;;;;2.81;70.34;101497.56;3614844;39;20062;-64
2022/12/04 02:05:08;;;;;;;50.35;25.58;;;;;;;2.78;70.38;101499.38;3614116;39;20046;-64
2022/12/04 02:07:38;;;;;;;51.97;26.33;;;;;;;2.76;70.62;101493.22;3614236;39;20039;-64
2022/12/04 02:10:07;;;;;;;51.58;27.75;;;;;;;2.77;71.07;101491.44;3613357;39;20409;-64
2022/12/04 02:13:01;;;;;;;51.45;26.33;;;;;;;2.77;70.86;101494.09;3613551;39;20056;-64
2022/12/04 02:15:58;;;;;;;54.95;27.45;;;;;;;2.77;71.05;101492.31;3615765;39;20050;-64
2022/12/04 02:18:45;;;;;;;50.20;26.33;;;;;;;2.77;70.24;101494.09;3614010;39;20116;-64
2022/12/04 02:21:27;;;;;;;49.53;26.45;;;;;;;2.76;70.54;101495.88;3612433;39;20123;-64
2022/12/04 02:24:46;;;;;;;49.95;26.88;;;;;;;2.75;70.73;101493.25;3612594;39;20051;-64
2022/12/04 02:27:38;;;;;;;48.55;25.27;;;;;;;2.77;70.50;101491.44;3611527;39;20055;-64
2022/12/04 02:30:14;;;;;;;50.40;26.67;;;;;;;2.78;70.86;101493.19;3610575;39;20046;-64
2022/12/04 02:33:14;;;;;;;49.63;26.88;;;;;;;2.78;70.62;101493.19;3611034;39;20425;-64
2022/12/04 02:35:50;;;;;;;51.33;26.92;;;;;;;2.77;70.66;101494.09;3611451;39;20055;-64
2022/12/04 02:38:34;;;;;;;48.60;26.33;;;;;;;2.58;70.38;101474.13;3612305;39;20047;-64
2022/12/04 02:41:30;;;;;;;49.92;27.33;;;;;;;2.70;71.04;101487.16;3614222;39;20112;-64
2022/12/04 02:44:11;;;;;;;50.13;25.75;;;;;;;2.73;70.05;101493.28;3618081;39;20061;-64
2022/12/04 02:46:44;;;;;;;55.10;27.55;;;;;;;2.71;71.01;101487.13;3612160;39;20477;-64
2022/12/04 02:49:25;;;;;;;49.65;26.17;;;;;;;2.73;70.54;101489.75;3614012;39;20050;-64
2022/12/04 02:51:57;;;;;;;51.97;26.55;;;;;;;2.70;70.30;101495.13;3612683;39;20059;-64
2022/12/04 02:54:38;;;;;;;51.03;28.10;;;;;;;2.72;70.69;101491.50;3613058;39;20051;-64
2022/12/04 02:57:12;;;;;;;50.97;27.83;;;;;;;2.37;70.63;101427.63;3612707;39;20047;-64
2022/12/04 02:59:44;;;;;;;51.00;28.27;;;;;;;2.71;71.46;101488.91;3612058;39;20090;-64
2022/12/04 03:02:32;;;;;;;52.28;26.83;;;;;;;2.71;70.43;101484.47;3616449;39;20295;-64
2022/12/04 03:05:09;;;;;;;50.67;27.27;;;;;;;2.68;70.67;101479.22;3617230;39;20139;-64
2022/12/04 03:07:59;;;;;;;54.30;28.38;;;;;;;2.68;70.33;101483.66;3611197;39;20059;-64
2022/12/04 03:10:40;;;;;;;55.08;27.17;;;;;;;2.71;71.11;101483.59;3611828;39;20042;-64
2022/12/04 03:13:19;;;;;;;54.50;27.92;;;;;;;2.70;70.73;101476.56;3613299;39;20094;-64
2022/12/04 03:15:47;;;;;;;53.33;29.05;;;;;;;2.72;70.87;101490.66;3613280;39;20051;-64
2022/12/04 03:18:39;;;;;;;50.10;28.17;;;;;;;2.73;70.65;101485.31;3612624;39;20062;-64
2022/12/04 03:21:22;;;;;;;53.95;28.60;;;;;;;2.73;70.62;101481.81;3610237;39;20051;-64
2022/12/04 03:24:04;;;;;;;51.92;28.38;;;;;;;2.41;70.25;101430.19;3616123;39;20054;-64
2022/12/04 03:26:39;;;;;;;53.08;28.13;;;;;;;2.62;69.78;101466.06;3597791;39;20065;-64
2022/12/04 03:29:19;;;;;;;52.33;26.65;;;;;;;2.71;70.90;101480.94;3614115;39;20046;-64
2022/12/04 03:32:14;;;;;;;51.22;27.23;;;;;;;2.72;71.36;101472.06;3613114;39;20073;-64
2022/12/04 03:35:11;;;;;;;54.20;28.52;;;;;;;2.68;71.32;101470.38;3613121;39;20066;-64
2022/12/04 03:38:16;;;;;;;50.55;28.48;;;;;;;2.71;71.04;101470.31;3613042;39;20050;-64
2022/12/04 03:41:04;;;;;;;50.65;28.10;;;;;;;2.73;70.33;101469.41;3593241;39;20055;-64
2022/12/04 03:43:58;;;;;;;53.40;26.35;;;;;;;2.74;70.56;101465.84;3614108;39;20050;-64
2022/12/04 03:46:38;;;;;;;51.40;28.13;;;;;;;2.75;70.30;101469.34;3612235;39;20070;-64
2022/12/04 03:49:36;;;;;;;54.55;28.45;;;;;;;2.37;70.27;101396.66;3611112;39;20059;-64
2022/12/04 03:52:52;;;;;;;49.83;27.88;;;;;;;2.73;70.04;101468.53;3611402;39;20046;-65
2022/12/04 03:55:32;;;;;;;55.30;29.13;;;;;;;2.76;70.81;101469.34;3613861;39;20420;-64
2022/12/04 03:58:09;;;;;;;55.05;29.02;;;;;;;2.77;71.30;101467.56;3616282;39;20086;-64
2022/12/04 04:00:41;;;;;;;54.05;28.95;;;;;;;2.74;70.79;101471.13;3615986;39;20119;-64
2022/12/04 04:03:33;;;;;;;55.00;30.23;;;;;;;2.35;70.45;101401.13;3613716;39;20054;-64
2022/12/04 04:06:12;;;;;;;51.75;28.17;;;;;;;2.70;70.40;101465.94;3617155;39;20055;-64
2022/12/04 04:08:47;;;;;;;54.33;28.40;;;;;;;2.72;71.14;101469.41;3618015;39;20092;-64
2022/12/04 04:11:22;;;;;;;52.17;28.15;;;;;;;2.67;70.63;101458.03;3621558;39;20340;-64
2022/12/04 04:25:46;;;;;;;56.92;29.42;;;;;;;2.71;70.56;101465.00;3613524;39;20614;-63
2022/12/04 04:28:38;;;;;;;53.63;28.50;;;;;;;2.71;70.98;101465.00;3613761;39;20062;-63
2022/12/04 04:31:45;;;;;;;53.17;28.17;;;;;;;2.72;70.35;101461.44;3616739;39;20050;-63
2022/12/04 04:34:55;;;;;;;51.90;28.17;;;;;;;2.47;70.72;101414.13;3615744;39;20085;-64
2022/12/04 04:37:52;;;;;;;54.72;28.80;;;;;;;2.75;70.51;101461.38;3616443;39;20064;-63
2022/12/04 04:40:39;;;;;;;56.25;28.58;;;;;;;2.70;70.78;101452.66;3616438;39;20055;-64
2022/12/04 04:43:27;;;;;;;53.50;29.35;;;;;;;2.75;70.11;101466.69;3620928;39;20073;-63
2022/12/04 04:46:16;;;;;;;52.42;27.70;;;;;;;2.74;70.43;101460.53;3614316;39;20392;-64
2022/12/04 04:48:53;;;;;;;52.65;27.65;;;;;;;2.76;70.59;101468.47;3618050;39;20369;-64
2022/12/04 04:51:19;;;;;;;54.55;29.52;;;;;;;2.75;69.80;101469.34;3613164;39;20558;-63
2022/12/04 04:53:52;;;;;;;53.72;29.05;;;;;;;2.72;70.47;101467.63;3616392;39;20066;-64
2022/12/04 04:56:21;;;;;;;55.70;28.73;;;;;;;2.76;70.66;101465.81;3621526;39;20150;-63
2022/12/04 04:58:46;;;;;;;53.00;29.90;;;;;;;2.78;70.58;101467.50;3613685;39;20086;-63
2022/12/04 05:01:17;;;;;;;54.50;29.35;;;;;;;2.78;70.85;101474.59;3616063;39;20083;-64
2022/12/04 05:03:43;;;;;;;58.35;29.35;;;;;;;2.81;70.67;101479.00;3604159;39;20366;-64
2022/12/04 05:06:09;;;;;;;55.33;29.90;;;;;;;2.82;70.34;101476.28;3615314;39;20069;-64
2022/12/04 05:08:36;;;;;;;51.92;28.52;;;;;;;2.85;71.03;101478.88;3612877;39;20072;-65
2022/12/04 05:11:03;;;;;;;52.38;28.15;;;;;;;2.86;69.88;101480.66;3617416;39;20159;-64
2022/12/04 05:13:31;;;;;;;54.13;28.77;;;;;;;2.83;70.95;101467.44;3614427;39;20120;-64
2022/12/04 05:16:06;;;;;;;51.38;28.70;;;;;;;2.86;70.51;101474.47;3615323;39;20092;-64
2022/12/04 05:18:34;;;;;;;52.42;28.65;;;;;;;2.84;69.94;101469.19;3622085;39;20042;-64
2022/12/04 05:21:14;;;;;;;52.00;28.70;;;;;;;2.83;70.35;101480.72;3615255;39;20381;-64
2022/12/04 05:23:40;;;;;;;52.28;29.15;;;;;;;2.82;70.81;101472.75;3616945;39;20329;-63
2022/12/04 05:26:05;;;;;;;51.83;28.52;;;;;;;2.79;70.60;101474.59;3614918;39;20339;-64
2022/12/04 05:28:31;;;;;;;53.47;28.95;;;;;;;2.79;70.42;101471.94;3616491;39;20050;-64
2022/12/04 05:31:01;;;;;;;54.53;28.17;;;;;;;2.47;70.92;101414.13;3618681;39;20043;-64
2022/12/04 05:33:28;;;;;;;55.33;28.50;;;;;;;2.79;70.13;101471.94;3607085;39;20049;-63
2022/12/04 05:36:06;;;;;;;56.33;29.10;;;;;;;2.79;70.49;101468.38;3618869;39;20061;-64
2022/12/04 05:38:33;;;;;;;51.55;28.50;;;;;;;2.78;70.84;101474.59;3614549;39;20465;-64
2022/12/04 05:41:01;;;;;;;54.92;28.75;;;;;;;2.81;70.37;101473.69;3614660;39;20039;-64
2022/12/04 05:43:27;;;;;;;55.35;29.55;;;;;;;2.82;70.40;101467.44;3616048;39;20345;-64
2022/12/04 05:45:53;;;;;;;57.40;29.75;;;;;;;2.81;70.48;101471.91;3615995;39;20086;-64
2022/12/04 05:48:19;;;;;;;52.70;28.52;;;;;;;2.51;70.30;101413.19;3622080;39;20054;-62
2022/12/04 05:50:45;;;;;;;52.97;28.50;;;;;;;2.77;70.34;101448.97;3617535;39;20054;-62
2022/12/04 05:53:11;;;;;;;54.08;29.00;;;;;;;2.82;70.65;101459.50;3619102;39;20054;-63
2022/12/04 05:55:36;;;;;;;56.22;29.92;;;;;;;2.76;71.33;101449.88;3621323;39;20062;-63
2022/12/04 05:58:03;;;;;;;52.50;28.52;;;;;;;2.79;70.46;101448.03;3621391;39;20695;-64
2022/12/04 06:00:29;;;;;;;54.30;28.45;;;;;;;2.79;71.30;101458.66;3617314;39;20142;-63
2022/12/04 06:02:55;;;;;;;53.05;28.98;;;;;;;2.82;70.39;101455.03;3616550;39;20125;-64
2022/12/04 06:05:20;;;;;;;54.60;29.40;;;;;;;2.85;70.88;101454.13;3620670;39;20050;-63
2022/12/04 06:07:46;;;;;;;51.33;29.17;;;;;;;2.84;70.31;101445.28;3617126;39;20058;-63
2022/12/04 06:10:11;;;;;;;59.47;30.30;;;;;;;2.81;70.54;101450.66;3621559;39;20058;-63
2022/12/04 06:12:37;;;;;;;52.30;28.70;;;;;;;2.81;70.33;101448.00;3617457;39;20397;-64
2022/12/04 06:15:04;;;;;;;54.97;29.00;;;;;;;2.74;71.17;101441.06;3617280;39;20051;-63
2022/12/04 06:17:29;;;;;;;55.72;29.35;;;;;;;2.77;71.01;101448.97;3619025;39;20403;-63
2022/12/04 06:19:55;;;;;;;51.90;29.35;;;;;;;2.74;70.43;101449.91;3617727;39;20056;-63
2022/12/04 06:22:21;;;;;;;49.53;27.63;;;;;;;2.77;70.70;101448.97;3617552;39;20073;-63
2022/12/04 06:24:47;;;;;;;54.90;29.83;;;;;;;2.81;71.54;101455.09;3617151;39;20150;-63
2022/12/04 06:27:13;;;;;;;52.50;28.38;;;;;;;2.83;71.00;101459.47;3618341;39;20050;-63
2022/12/04 06:29:38;;;;;;;56.85;28.90;;;;;;;2.84;70.95;101461.22;3618290;39;20084;-64
2022/12/04 06:32:04;;;;;;;54.10;28.88;;;;;;;2.84;70.73;101458.56;3618571;39;20878;-63
2022/12/04 06:34:30;;;;;;;57.75;29.48;;;;;;;2.85;71.46;101448.81;3616850;39;20054;-64
2022/12/04 06:36:55;;;;;;;54.83;29.02;;;;;;;2.85;71.26;101452.34;3618048;39;20067;-64
2022/12/04 06:39:21;;;;;;;56.85;29.92;;;;;;;2.84;71.58;101458.56;3616235;39;20066;-63
2022/12/04 06:41:47;;;;;;;56.33;29.35;;;;;;;2.86;70.84;101458.53;3616728;39;20412;-62
2022/12/04 06:44:14;;;;;;;55.70;28.58;;;;;;;2.80;71.23;101446.25;3619310;39;20135;-63
2022/12/04 06:46:40;;;;;;;57.33;30.25;;;;;;;2.88;71.14;101452.28;3616587;39;20042;-63
2022/12/04 06:49:05;;;;;;;53.85;29.40;;;;;;;2.87;71.60;101454.97;3618800;39;20103;-63
2022/12/04 06:51:35;;;;;;;51.75;28.65;;;;;;;2.87;71.15;101458.50;3616190;39;20188;-63
2022/12/04 06:54:02;;;;;;;53.83;28.45;;;;;;;2.86;71.53;101454.09;3615001;39;20051;-63
2022/12/04 06:56:32;;;;;;;58.92;29.38;;;;;;;2.86;70.74;101464.72;3614845;39;20451;-63
2022/12/04 06:59:01;;;;;;;54.92;28.70;;;;;;;2.79;71.23;101452.44;3615279;39;20046;-63
2022/12/04 07:01:32;;;;;;;55.95;29.48;;;;;;;2.90;70.67;101470.84;3615707;39;20112;-63
2022/12/04 07:03:59;;;;;;;56.25;30.52;;;;;;;2.91;71.74;101472.59;3605819;39;20066;-63
2022/12/04 07:06:33;;;;;;;52.63;28.48;;;;;;;2.91;71.61;101478.75;3617956;39;20062;-63
2022/12/04 07:09:02;;;;;;;51.75;29.08;;;;;;;2.90;71.00;101471.72;3615967;39;20054;-63
2022/12/04 07:11:28;;;;;;;54.42;28.80;;;;;;;2.92;70.94;101469.03;3615907;39;20054;-63
2022/12/04 07:13:54;;;;;;;54.42;29.55;;;;;;;2.91;70.55;101476.13;3617280;39;20062;-63
2022/12/04 07:16:23;;;;;;;55.83;30.13;;;;;;;2.90;70.93;101479.69;3618116;39;20749;-63
2022/12/04 07:18:50;;;;;;;50.10;27.88;;;;;;;2.88;71.15;101477.94;3617029;39;20061;-63
2022/12/04 07:21:20;;;;;;;55.58;29.25;;;;;;;2.88;70.81;101488.56;3616328;39;20066;-63
2022/12/04 07:23:56;;;;;;;52.65;28.70;;;;;;;2.83;70.86;101478.06;3617269;39;20059;-64
2022/12/04 07:26:23;;;;;;;48.78;27.80;;;;;;;2.85;71.35;101500.13;3614980;39;20054;-63
2022/12/04 07:28:49;;;;;;;51.97;27.98;;;;;;;2.87;71.36;101489.50;3614807;39;20055;-64
2022/12/04 07:31:22;;;;;;;50.60;28.15;;;;;;;2.88;71.32;101493.88;3613938;39;20397;-63
2022/12/04 07:33:49;;;;;;;51.83;27.88;;;;;;;2.86;70.86;101496.59;3616194;39;20090;-63
2022/12/04 07:36:19;;;;;;;51.08;27.92;;;;;;;2.88;71.82;101493.88;3617235;39;20082;-64
2022/12/04 07:38:46;;;;;;;50.95;27.75;;;;;;;2.87;71.12;101487.72;3613061;39;20051;-63
2022/12/04 07:41:13;;;;;;;50.33;27.35;;;;;;;2.82;71.21;101483.38;3613094;39;20059;-63
2022/12/04 07:43:40;;;;;;;48.58;27.92;;;;;;;2.93;71.02;101495.56;3617211;39;20374;-63
2022/12/04 07:46:22;;;;;;;50.90;28.33;;;;;;;2.86;70.64;101483.31;3612906;39;20132;-62
2022/12/04 07:48:48;;;;;;;50.03;29.08;;;;;;;2.92;70.88;101498.25;3612152;39;20316;-63
2022/12/04 07:51:23;;;;;;;47.25;27.30;;;;;;;2.91;71.72;101497.34;3615822;39;20111;-63
2022/12/04 07:53:52;;;;;;;45.50;25.00;;;;;;;2.94;71.03;101505.25;3613040;39;20067;-64
2022/12/04 07:56:19;;;;;;;47.03;26.45;;;;;;;2.95;71.59;101496.41;3615181;39;20054;-64
2022/12/04 07:58:45;;;;;;;49.22;26.67;;;;;;;2.42;70.54;101408.06;3617611;39;20103;-64
2022/12/04 08:01:22;;;;;;;46.00;26.13;;;;;;;2.98;70.67;101501.66;3615735;39;20102;-64
2022/12/04 08:03:55;;;;;;;44.42;25.83;;;;;;;2.69;70.53;101456.19;3615120;39;20300;-64
2022/12/04 08:06:24;;;;;;;45.55;26.52;;;;;;;3.00;70.85;101505.16;3618800;39;20134;-64
2022/12/04 08:08:51;;;;;;;46.78;25.10;;;;;;;3.01;71.28;101512.22;3615729;39;20074;-64
2022/12/04 08:11:24;;;;;;;44.70;25.15;;;;;;;3.02;70.44;101507.78;3615147;39;20054;-64
2022/12/04 08:13:56;;;;;;;43.58;23.90;;;;;;;3.00;71.01;101510.47;3615453;39;20059;-64
2022/12/04 08:16:24;;;;;;;43.28;23.73;;;;;;;3.01;70.47;101511.31;3615073;39;20420;-65
2022/12/04 08:18:51;;;;;;;44.60;25.92;;;;;;;3.02;70.46;101513.09;3616645;39;20066;-64
2022/12/04 08:21:21;;;;;;;41.08;23.85;;;;;;;3.01;70.41;101506.91;3618284;39;20107;-65
2022/12/04 08:23:50;;;;;;;44.28;24.98;;;;;;;3.02;70.51;101516.63;3613770;39;20095;-65
2022/12/04 08:26:19;;;;;;;42.00;23.85;;;;;;;3.02;70.62;101519.28;3618388;39;20054;-65
2022/12/04 08:28:45;;;;;;;44.10;25.63;;;;;;;3.05;70.63;101520.13;3617056;39;20106;-65
2022/12/04 08:31:18;;;;;;;39.95;23.20;;;;;;;3.04;71.05;101516.56;3613592;39;20090;-65
2022/12/04 08:33:46;;;;;;;39.05;24.20;;;;;;;3.08;71.14;101525.41;3615508;39;20134;-65
2022/12/04 08:36:18;;;;;;;43.08;24.25;;;;;;;3.12;70.72;101508.47;3618831;39;20055;-65
2022/12/04 08:38:44;;;;;;;40.65;24.13;;;;;;;3.16;70.50;101510.16;3617543;39;20058;-65
2022/12/04 08:41:14;;;;;;;39.90;23.83;;;;;;;3.15;69.64;101505.75;3616840;39;20054;-65
2022/12/04 08:43:40;;;;;;;38.90;22.77;;;;;;;3.17;69.96;101514.56;3616379;39;20051;-64
2022/12/04 08:46:10;;;;;;;38.00;22.67;;;;;;;3.20;70.00;101509.19;3616237;39;20062;-64
2022/12/04 08:48:36;;;;;;;40.20;23.20;;;;;;;3.21;69.72;101505.63;3618126;39;20413;-64
2022/12/04 08:51:03;;;;;;;38.42;22.20;;;;;;;3.21;69.81;101503.84;3616277;39;20553;-65
2022/12/04 08:53:30;;;;;;;36.67;22.15;;;;;;;3.23;70.16;101511.78;3617968;39;20053;-64
2022/12/04 08:55:56;;;;;;;36.50;21.60;;;;;;;3.24;69.17;101497.59;3618249;39;20069;-65
2022/12/04 08:58:22;;;;;;;38.38;20.92;;;;;;;2.92;69.28;101445.16;3621184;39;20051;-65
2022/12/04 09:00:48;;;;;;;36.78;20.92;;;;;;;2.98;70.04;101445.91;3610062;39;20050;-64
2022/12/04 09:03:18;;;;;;;36.63;21.35;;;;;;;3.28;69.09;101501.94;3615094;39;20409;-65
2022/12/04 09:05:45;;;;;;;35.17;20.85;;;;;;;3.30;69.18;101494.81;3619032;39;20114;-64
2022/12/04 09:08:13;;;;;;;33.10;20.02;;;;;;;3.32;69.18;101500.09;3617205;39;20066;-64
2022/12/04 09:10:41;;;;;;;34.72;21.20;;;;;;;3.30;68.30;101500.13;3616836;39;20060;-64
2022/12/04 09:13:07;;;;;;;33.50;19.52;;;;;;;3.34;69.14;101509.78;3618172;39;20077;-64
2022/12/04 09:15:38;;;;;;;36.90;20.10;;;;;;;3.37;68.49;101507.06;3607648;39;20086;-66
2022/12/04 09:18:03;;;;;;;34.00;19.92;;;;;;;3.34;68.84;101488.53;3605566;39;20304;-66
2022/12/04 09:20:29;;;;;;;34.90;20.27;;;;;;;3.48;68.54;101501.50;3608203;39;20102;-65
2022/12/04 09:22:55;;;;;;;31.20;20.05;;;;;;;3.50;68.39;101515.66;3616196;39;20580;-65
2022/12/04 09:25:20;;;;;;;33.45;20.67;;;;;;;3.51;67.86;101512.06;3619186;39;20316;-64
2022/12/04 09:27:46;;;;;;;33.78;20.15;;;;;;;3.52;67.96;101516.50;3619602;39;20063;-66
2022/12/04 09:30:12;;;;;;;31.75;19.08;;;;;;;3.49;67.97;101513.91;3614789;39;20058;-66
2022/12/04 09:32:38;;;;;;;31.67;19.38;;;;;;;3.52;68.42;101519.16;3619388;39;20055;-66
2022/12/04 09:35:06;;;;;;;35.95;21.05;;;;;;;3.55;68.75;101518.19;3617273;39;20055;-66
2022/12/04 09:37:35;;;;;;;34.35;20.95;;;;;;;3.58;68.43;101523.44;3614857;39;20050;-65
2022/12/04 09:40:02;;;;;;;34.03;19.30;;;;;;;3.60;68.02;101521.63;3615948;39;20098;-66
2022/12/04 09:43:08;;;;;;;34.35;19.48;;;;;;;3.62;68.00;101518.03;3617815;39;20126;-65
2022/12/04 09:45:49;;;;;;;30.15;18.70;;;;;;;3.62;67.89;101517.19;3616046;39;20433;-66
2022/12/04 09:48:19;;;;;;;31.85;17.52;;;;;;;3.65;67.57;101504.69;3617248;39;20139;-64
2022/12/04 09:50:49;;;;;;;31.58;19.27;;;;;;;3.63;67.04;101510.94;3614688;39;20062;-66
2022/12/04 09:53:28;;;;;;;32.67;18.50;;;;;;;3.63;67.23;101522.44;3614735;39;20115;-65
2022/12/04 09:56:04;;;;;;;30.20;18.65;;;;;;;3.63;67.72;101521.56;3618879;39;20304;-66
2022/12/04 09:58:58;;;;;;;30.73;18.08;;;;;;;3.59;66.65;101525.22;3614676;39;20339;-65
2022/12/04 10:01:38;;;;;;;27.02;16.30;;;;;;;3.52;66.48;101526.22;3615402;39;20083;-66
2022/12/04 10:04:04;;;;;;;29.30;16.98;;;;;;;3.38;66.91;101511.47;3615284;39;20083;-65
2022/12/04 10:06:45;;;;;;;29.05;17.33;;;;;;;3.44;67.51;101521.09;3617373;39;20090;-65
2022/12/04 10:09:41;;;;;;;27.70;17.67;;;;;;;3.41;67.45;101522.03;3616325;39;20059;-65
2022/12/04 10:12:32;;;;;;;29.13;16.98;;;;;;;3.43;68.06;101524.66;3620100;39;20290;-65
2022/12/04 10:15:31;;;;;;;30.98;17.13;;;;;;;3.25;67.66;101497.56;3613131;39;20063;-66
2022/12/04 10:18:18;;;;;;;27.45;16.50;;;;;;;3.36;67.87;101510.63;3615474;39;20059;-66
2022/12/04 10:21:21;;;;;;;27.83;16.75;;;;;;;3.38;68.03;101510.59;3618220;39;20063;-65
2022/12/04 10:24:27;;;;;;;26.35;15.25;;;;;;;3.34;67.36;101504.47;3615575;39;20093;-66
2022/12/04 10:27:03;;;;;;;29.92;17.08;;;;;;;3.31;66.99;101504.53;3613892;39;20106;-66
2022/12/04 10:29:36;;;;;;;28.75;17.80;;;;;;;3.25;67.67;101510.84;3618688;39;20066;-65
2022/12/04 10:32:25;;;;;;;29.95;16.73;;;;;;;3.27;67.56;101513.47;3604560;39;20416;-66
2022/12/04 10:34:58;;;;;;;27.50;16.58;;;;;;;3.16;67.66;101500.41;3614787;39;20049;-66
2022/12/04 10:37:27;;;;;;;27.10;16.90;;;;;;;3.17;68.48;101502.19;3615065;39;20058;-66
2022/12/04 10:40:24;;;;;;;29.20;17.80;;;;;;;3.24;67.91;101518.88;3614028;39;20054;-64
2022/12/04 10:43:16;;;;;;;30.30;16.50;;;;;;;3.24;68.62;101525.03;3609331;39;20086;-64
2022/12/04 10:45:42;;;;;;;28.85;17.05;;;;;;;3.09;67.68;101490.81;3617842;39;20063;-63
2022/12/04 10:48:25;;;;;;;29.42;17.02;;;;;;;3.26;67.69;101517.03;3617289;39;20058;-64
2022/12/04 10:50:51;;;;;;;31.03;17.37;;;;;;;3.25;68.08;101520.59;3613180;39;20067;-64
2022/12/04 10:53:33;;;;;;;28.30;16.58;;;;;;;3.25;68.05;101509.97;3616177;39;20062;-63
2022/12/04 10:56:19;;;;;;;29.40;17.00;;;;;;;3.28;68.39;101517.00;3616368;39;20043;-64
2022/12/04 10:59:05;;;;;;;29.27;17.58;;;;;;;3.28;68.30;101512.56;3617311;39;20135;-63
2022/12/04 11:01:34;;;;;;;29.10;16.85;;;;;;;3.30;68.37;101507.22;3608203;39;20054;-63
2022/12/04 11:04:17;;;;;;;26.77;17.35;;;;;;;3.29;68.14;101501.03;3616219;39;20089;-66
2022/12/04 11:06:44;;;;;;;28.48;16.88;;;;;;;3.28;67.86;101498.41;3616724;39;20050;-63
2022/12/04 11:09:22;;;;;;;28.77;17.50;;;;;;;3.33;68.65;101492.09;3617825;39;20086;-64
2022/12/04 11:11:50;;;;;;;31.70;18.52;;;;;;;3.33;67.45;101497.41;3615309;39;20050;-64
2022/12/04 11:14:20;;;;;;;30.83;18.17;;;;;;;3.25;68.51;101478.09;3620473;39;20090;-65
2022/12/04 11:17:00;;;;;;;30.45;18.42;;;;;;;3.33;68.90;101493.84;3619535;39;20058;-65
2022/12/04 11:19:30;;;;;;;28.45;17.10;;;;;;;3.28;68.53;101475.38;3616663;39;20061;-65
2022/12/04 11:22:11;;;;;;;28.80;18.52;;;;;;;3.29;68.43;101485.09;3617220;39;20055;-65
2022/12/04 11:24:41;;;;;;;32.38;19.13;;;;;;;3.33;68.44;101483.22;3616272;39;20411;-65
2022/12/04 11:27:22;;;;;;;40.83;23.35;;;;;;;3.32;68.30;101482.34;3616800;39;20034;-65
2022/12/04 11:29:50;;;;;;;26.70;16.30;;;;;;;3.29;68.38;101474.44;3616290;39;20406;-65
2022/12/04 11:32:25;;;;;;;26.88;17.20;;;;;;;2.99;68.26;101422.88;3619479;39;20043;-65
2022/12/04 11:35:16;;;;;;;27.60;17.02;;;;;;;3.25;69.05;101472.78;3618284;39;20061;-64
2022/12/04 11:37:56;;;;;;;27.02;17.30;;;;;;;3.28;68.32;101478.03;3618885;39;20054;-64
2022/12/04 11:40:25;;;;;;;25.80;17.25;;;;;;;3.31;68.81;101472.66;3614767;39;20047;-65
2022/12/04 11:43:13;;;;;;;27.42;16.65;;;;;;;3.00;68.33;101419.28;3617868;39;20373;-64
2022/12/04 11:45:41;;;;;;;26.85;16.70;;;;;;;3.34;68.82;101469.94;3615754;39;20316;-64
2022/12/04 11:48:17;;;;;;;26.77;16.63;;;;;;;3.27;68.04;101465.66;3618276;39;20328;-64
2022/12/04 11:50:45;;;;;;;27.98;17.30;;;;;;;2.73;68.57;101370.31;3618045;39;20054;-64
2022/12/04 11:53:49;;;;;;;28.80;17.20;;;;;;;3.32;68.01;101473.53;3617906;39;20061;-65
2022/12/04 11:56:21;;;;;;;29.10;18.73;;;;;;;3.31;68.11;101472.66;3592520;39;20092;-65
2022/12/04 11:59:11;;;;;;;26.87;18.43;;;;;;;3.32;68.51;101474.38;3619512;39;20046;-65